Ash, Missouri
Current Conditions -  °F | °C
As of 8:55 AM on Wednesday 26 Nov 2014 (Local Time) from KVER Reporting Station
Overcast Overcast  
Wind Chill: 33°   Ceiling: 4800
Heat Index: 33°   Visibility: 10mi
Dew Point: 33°   Wind: 3mph
Humidity: 100%   Direction: 170°S
Pressure: 29.95"   Gusts: NA
Location:  39.4792°N, 92.217°W
Report Text: KVER 261455Z AUTO 17003KT 10SM SCT005 SCT014 OVC048 01/01 A2995 RMK AO2 60004 T00070008
Loading
Personal Weather Stations






























Interactive Weather Map New forecast layout! Learn more

10-Day Weather Forecast

Advertisements
Track Severe Weather on mobile